Time;durP1;ratioP1;P1;durP2;ratioP2;P2;SDS_P1;SDS_P2;PMS_P1;PMS_P2;Temp;Humidity;BMP_temperature;BMP_pressure;BME280_temperature;BME280_humidity;BME280_pressure;Samples;Min_cycle;Max_cycle;Signal;HPM_P1;HPM_P2
2021/09/04 00:01:38;;;;;;;18.77;14.20;;;17.40;99.90;;;;;;5128767;27;20194;-36
2021/09/04 00:04:03;;;;;;;20.20;14.70;;;17.40;99.90;;;;;;5116709;27;20226;-37
2021/09/04 00:06:29;;;;;;;21.50;14.63;;;17.40;99.90;;;;;;5128742;27;20183;-36
2021/09/04 00:08:55;;;;;;;20.20;15.30;;;17.40;99.90;;;;;;5128607;27;20615;-37
2021/09/04 00:11:21;;;;;;;17.67;13.57;;;17.40;99.90;;;;;;5128820;27;20539;-37
2021/09/04 00:13:47;;;;;;;18.57;14.90;;;17.30;99.90;;;;;;5122582;27;20194;-37
2021/09/04 00:16:12;;;;;;;18.10;14.33;;;17.30;99.90;;;;;;5107671;28;20417;-37
2021/09/04 00:18:38;;;;;;;25.07;15.63;;;17.30;99.90;;;;;;5110839;27;20669;-37
2021/09/04 00:21:04;;;;;;;24.67;15.20;;;17.20;99.90;;;;;;5128018;27;20186;-37
2021/09/04 00:23:29;;;;;;;17.20;13.93;;;17.20;99.90;;;;;;5127727;27;20207;-37
2021/09/04 00:25:55;;;;;;;20.10;15.80;;;17.20;99.90;;;;;;5127928;27;20205;-37
2021/09/04 00:28:21;;;;;;;18.83;15.70;;;17.10;99.90;;;;;;5128588;27;20194;-37
2021/09/04 00:30:47;;;;;;;23.67;16.50;;;17.10;99.90;;;;;;5128419;27;20236;-37
2021/09/04 00:33:12;;;;;;;22.40;15.03;;;17.20;99.90;;;;;;5118886;27;20183;-37
2021/09/04 00:35:38;;;;;;;20.80;14.77;;;17.20;99.90;;;;;;5126978;27;20417;-37
2021/09/04 00:38:04;;;;;;;20.17;14.83;;;17.10;99.90;;;;;;5123247;27;20187;-37
2021/09/04 00:40:29;;;;;;;21.50;15.13;;;17.10;99.90;;;;;;5109252;27;20394;-38
2021/09/04 00:42:55;;;;;;;19.47;14.77;;;17.10;99.90;;;;;;5127661;27;20231;-37
2021/09/04 00:45:21;;;;;;;26.30;16.63;;;17.00;99.90;;;;;;5127879;27;20572;-36
2021/09/04 00:48:02;;;;;;;20.20;15.77;;;17.00;99.90;;;;;;5122216;27;20215;-37
2021/09/04 00:50:31;;;;;;;20.67;14.97;;;17.00;99.90;;;;;;5125950;27;20266;-37
2021/09/04 00:52:57;;;;;;;22.60;17.13;;;17.00;99.90;;;;;;5127472;27;20775;-37
2021/09/04 00:55:24;;;;;;;20.03;15.60;;;17.00;99.90;;;;;;5127501;27;20453;-37
2021/09/04 00:57:50;;;;;;;21.00;15.97;;;16.90;99.90;;;;;;5127525;27;20425;-37
2021/09/04 01:00:16;;;;;;;20.97;16.47;;;16.90;99.90;;;;;;5127349;27;20424;-37
2021/09/04 01:02:42;;;;;;;23.37;17.07;;;16.90;99.90;;;;;;5122934;27;20517;-38
2021/09/04 01:05:08;;;;;;;21.67;16.27;;;16.80;99.90;;;;;;5121786;27;20453;-37
2021/09/04 01:07:34;;;;;;;21.03;16.40;;;16.70;99.90;;;;;;5119583;27;20202;-37
2021/09/04 01:10:02;;;;;;;21.97;17.40;;;16.70;99.90;;;;;;5107409;28;20417;-37
2021/09/04 01:12:28;;;;;;;21.10;16.60;;;16.70;99.90;;;;;;5120044;27;20413;-37
2021/09/04 01:14:53;;;;;;;26.90;16.77;;;16.70;99.90;;;;;;5112702;27;20421;-37
2021/09/04 01:17:20;;;;;;;25.27;16.90;;;16.70;99.90;;;;;;5105113;28;20417;-37
2021/09/04 01:19:45;;;;;;;20.30;16.30;;;16.70;99.90;;;;;;5114025;27;20645;-37
2021/09/04 01:22:11;;;;;;;25.03;18.30;;;16.80;99.90;;;;;;5123226;27;20500;-37
2021/09/04 01:24:38;;;;;;;22.93;16.90;;;16.70;99.90;;;;;;5108907;27;20449;-37
2021/09/04 01:27:04;;;;;;;23.17;16.63;;;16.70;99.90;;;;;;5126843;27;20569;-37
2021/09/04 01:29:30;;;;;;;29.40;16.97;;;16.70;99.90;;;;;;5127322;27;20446;-37
2021/09/04 01:31:56;;;;;;;23.27;16.63;;;16.70;99.90;;;;;;5126453;27;20417;-37
2021/09/04 01:34:23;;;;;;;23.20;16.97;;;16.70;99.90;;;;;;5115153;27;20188;-37
2021/09/04 01:36:49;;;;;;;21.27;16.37;;;16.70;99.90;;;;;;5126982;27;20604;-37
2021/09/04 01:39:15;;;;;;;19.83;17.10;;;16.70;99.90;;;;;;5127221;27;20566;-37
2021/09/04 01:41:41;;;;;;;23.93;18.27;;;16.70;99.90;;;;;;5126856;27;20589;-37
2021/09/04 01:44:07;;;;;;;23.87;17.87;;;16.60;99.90;;;;;;5126929;27;20538;-38
2021/09/04 01:46:36;;;;;;;22.07;18.10;;;16.70;99.90;;;;;;5126326;27;20405;-37
2021/09/04 01:49:03;;;;;;;23.83;17.93;;;16.70;99.90;;;;;;5119160;27;20429;-37
2021/09/04 01:51:29;;;;;;;23.67;17.40;;;16.60;99.90;;;;;;5126265;27;20416;-38
2021/09/04 01:53:54;;;;;;;23.40;17.50;;;16.60;99.90;;;;;;5126459;27;20763;-37
2021/09/04 01:56:20;;;;;;;22.20;17.70;;;16.60;99.90;;;;;;5126303;27;20193;-37
2021/09/04 01:58:49;;;;;;;24.93;18.03;;;16.60;99.90;;;;;;5126608;27;20378;-37
2021/09/04 02:01:14;;;;;;;25.03;17.60;;;16.50;99.90;;;;;;5126513;27;20403;-37
2021/09/04 02:03:40;;;;;;;23.00;18.70;;;16.40;99.90;;;;;;5120834;27;20962;-37
2021/09/04 02:06:06;;;;;;;23.33;17.77;;;16.30;99.90;;;;;;5123540;27;20179;-37
2021/09/04 02:08:32;;;;;;;23.43;18.70;;;16.30;99.90;;;;;;5122385;28;20198;-37
2021/09/04 02:10:58;;;;;;;30.60;18.50;;;16.30;99.90;;;;;;5126564;28;20578;-37
2021/09/04 02:13:24;;;;;;;26.77;18.70;;;16.20;99.90;;;;;;5123357;28;20508;-37
2021/09/04 02:15:51;;;;;;;30.07;19.50;;;16.10;99.90;;;;;;5105436;28;20413;-37
2021/09/04 02:18:17;;;;;;;26.00;18.30;;;16.10;99.90;;;;;;5104797;28;20425;-37
2021/09/04 02:20:43;;;;;;;29.13;19.20;;;16.10;99.90;;;;;;5101440;28;20783;-36
2021/09/04 02:23:09;;;;;;;29.47;19.37;;;16.10;99.90;;;;;;5128848;27;20412;-37
2021/09/04 02:25:36;;;;;;;27.97;19.83;;;16.10;99.90;;;;;;5130734;27;20460;-37
2021/09/04 02:28:03;;;;;;;27.40;21.60;;;16.10;99.90;;;;;;5130597;27;20779;-37
2021/09/04 02:30:28;;;;;;;27.77;21.00;;;16.20;99.90;;;;;;5130841;27;20442;-38
2021/09/04 02:32:54;;;;;;;31.43;22.53;;;16.10;99.90;;;;;;5130325;27;20982;-37
2021/09/04 02:35:20;;;;;;;32.13;20.83;;;16.10;99.90;;;;;;5101609;27;20655;-37
2021/09/04 02:37:46;;;;;;;32.70;22.70;;;16.10;99.90;;;;;;5130189;27;20614;-37
2021/09/04 02:40:12;;;;;;;32.50;22.80;;;16.10;99.90;;;;;;5130285;27;20440;-37
2021/09/04 02:42:37;;;;;;;33.37;22.27;;;16.10;99.90;;;;;;5129803;27;20224;-37
2021/09/04 02:45:04;;;;;;;31.97;22.60;;;16.10;99.90;;;;;;5130182;27;20230;-37
2021/09/04 02:47:29;;;;;;;32.80;22.47;;;16.20;99.90;;;;;;5130203;27;20179;-37
2021/09/04 02:49:55;;;;;;;32.83;22.23;;;16.10;99.90;;;;;;5118091;27;20426;-37
2021/09/04 02:52:21;;;;;;;31.90;22.60;;;16.10;99.90;;;;;;5126788;27;20183;-37
2021/09/04 02:54:46;;;;;;;33.47;22.30;;;16.10;99.90;;;;;;5111810;27;20300;-37
2021/09/04 02:57:12;;;;;;;32.93;22.20;;;16.10;99.90;;;;;;5129739;27;20726;-37
2021/09/04 02:59:37;;;;;;;34.93;23.57;;;16.00;99.90;;;;;;5129965;27;20532;-37
2021/09/04 03:02:03;;;;;;;32.00;22.50;;;16.00;99.90;;;;;;5129864;27;20726;-37
2021/09/04 03:04:29;;;;;;;33.60;22.57;;;16.00;99.90;;;;;;5119599;27;20223;-37
2021/09/04 03:06:55;;;;;;;30.30;22.30;;;16.10;99.90;;;;;;5123719;27;20228;-37
2021/09/04 03:09:21;;;;;;;33.47;23.93;;;16.00;99.90;;;;;;5129900;27;20412;-37
2021/09/04 03:11:46;;;;;;;29.00;21.83;;;16.00;99.90;;;;;;5129231;27;20191;-37
2021/09/04 03:14:12;;;;;;;31.90;23.57;;;16.00;99.90;;;;;;5121625;27;20218;-37
2021/09/04 03:16:38;;;;;;;32.27;23.73;;;16.00;99.90;;;;;;5107907;28;20192;-37
2021/09/04 03:19:03;;;;;;;33.77;21.73;;;16.00;99.90;;;;;;5108541;27;20187;-37
2021/09/04 03:21:29;;;;;;;31.10;22.63;;;16.00;99.90;;;;;;5125710;27;20191;-38
2021/09/04 03:23:55;;;;;;;29.40;21.30;;;16.00;99.90;;;;;;5129573;27;20206;-37
2021/09/04 03:26:21;;;;;;;35.63;23.20;;;16.00;99.90;;;;;;5129106;27;20183;-37
2021/09/04 03:28:47;;;;;;;29.93;21.50;;;16.00;99.90;;;;;;5129414;27;20191;-37
2021/09/04 03:31:13;;;;;;;35.93;23.53;;;16.10;99.90;;;;;;5129510;27;20417;-37
2021/09/04 03:33:38;;;;;;;33.07;21.83;;;16.10;99.90;;;;;;5109473;28;20190;-37
2021/09/04 03:36:04;;;;;;;35.33;23.77;;;16.00;99.90;;;;;;5118484;27;20504;-37
2021/09/04 03:38:30;;;;;;;31.00;22.77;;;16.00;99.90;;;;;;5128733;27;20665;-37
2021/09/04 03:40:56;;;;;;;29.00;20.30;;;16.00;99.90;;;;;;5129055;27;20561;-37
2021/09/04 03:43:21;;;;;;;31.00;23.17;;;16.10;99.90;;;;;;5128769;27;20500;-37
2021/09/04 03:45:47;;;;;;;31.83;21.67;;;16.00;99.90;;;;;;5110697;27;20218;-37
2021/09/04 03:48:13;;;;;;;36.63;22.77;;;16.00;99.90;;;;;;5128982;27;20282;-37
2021/09/04 03:50:38;;;;;;;33.63;22.40;;;16.00;99.90;;;;;;5120223;27;20282;-37
2021/09/04 03:53:04;;;;;;;30.63;21.20;;;15.90;99.90;;;;;;5128779;27;20187;-37
2021/09/04 03:55:29;;;;;;;32.73;23.00;;;15.90;99.90;;;;;;5129062;27;20186;-37
2021/09/04 03:57:55;;;;;;;34.37;23.70;;;15.90;99.90;;;;;;5128639;27;20206;-37
2021/09/04 04:00:21;;;;;;;36.00;22.87;;;15.90;99.90;;;;;;5128464;27;20183;-37
2021/09/04 04:02:47;;;;;;;30.93;22.40;;;15.80;99.90;;;;;;5128497;27;20187;-37
2021/09/04 04:05:12;;;;;;;38.67;24.17;;;15.70;99.90;;;;;;5119111;27;20215;-37
2021/09/04 04:07:38;;;;;;;36.50;23.00;;;15.80;99.90;;;;;;5128225;27;20223;-37
2021/09/04 04:10:05;;;;;;;37.93;22.90;;;15.70;99.90;;;;;;5110269;27;20190;-37
2021/09/04 04:12:32;;;;;;;33.97;23.90;;;15.80;99.90;;;;;;5127676;27;20282;-37
2021/09/04 04:14:58;;;;;;;34.63;23.20;;;15.80;99.90;;;;;;5113399;27;20558;-37
2021/09/04 04:17:24;;;;;;;37.00;23.20;;;15.70;99.90;;;;;;5088766;28;20520;-37
2021/09/04 04:19:49;;;;;;;37.87;22.80;;;15.70;99.90;;;;;;5108945;27;20202;-37
2021/09/04 04:22:15;;;;;;;36.60;23.83;;;15.70;99.90;;;;;;5108090;27;20534;-37
2021/09/04 04:24:41;;;;;;;39.43;25.43;;;15.70;99.90;;;;;;5128081;27;20400;-37
2021/09/04 04:27:07;;;;;;;39.17;24.87;;;15.60;99.90;;;;;;5128087;27;20205;-37
2021/09/04 04:29:33;;;;;;;39.13;24.97;;;15.60;99.90;;;;;;5128005;27;20444;-37
2021/09/04 04:31:58;;;;;;;38.37;23.10;;;15.70;99.90;;;;;;5128226;27;20421;-37
2021/09/04 04:34:24;;;;;;;34.50;23.50;;;15.60;99.90;;;;;;5125976;27;20456;-37
2021/09/04 04:36:50;;;;;;;41.10;25.33;;;15.60;99.90;;;;;;5120753;27;20608;-37
2021/09/04 04:39:15;;;;;;;38.17;23.73;;;15.60;99.90;;;;;;5126765;27;20190;-37
2021/09/04 04:41:41;;;;;;;39.40;24.97;;;15.60;99.90;;;;;;5127941;27;20195;-37
2021/09/04 04:44:07;;;;;;;38.23;23.90;;;15.60;99.90;;;;;;5127912;27;20264;-38
2021/09/04 04:46:33;;;;;;;37.83;24.93;;;15.60;99.90;;;;;;5126712;27;20216;-37
2021/09/04 04:48:58;;;;;;;33.27;23.03;;;15.60;99.90;;;;;;5127840;27;20421;-36
2021/09/04 04:51:24;;;;;;;41.30;26.20;;;15.50;99.90;;;;;;5099425;27;20274;-37
2021/09/04 04:53:50;;;;;;;34.97;23.67;;;15.50;99.90;;;;;;5126190;27;20677;-38
2021/09/04 04:56:16;;;;;;;41.43;25.83;;;15.60;99.90;;;;;;5106725;28;20188;-37
2021/09/04 04:58:42;;;;;;;41.23;24.50;;;15.50;99.90;;;;;;5114517;27;20417;-37
2021/09/04 05:01:07;;;;;;;37.20;24.20;;;15.60;99.90;;;;;;5127636;27;20435;-37
2021/09/04 05:03:33;;;;;;;38.90;23.70;;;15.60;99.90;;;;;;5127227;27;20519;-37
2021/09/04 05:05:59;;;;;;;33.40;22.23;;;15.50;99.90;;;;;;5117883;27;20458;-37
2021/09/04 05:08:26;;;;;;;39.63;24.33;;;15.40;99.90;;;;;;5105231;27;20605;-37
2021/09/04 05:10:52;;;;;;;36.50;23.80;;;15.40;99.90;;;;;;5125010;27;20457;-37
2021/09/04 05:13:17;;;;;;;38.30;23.50;;;15.40;99.90;;;;;;5125536;27;20467;-37
2021/09/04 05:15:43;;;;;;;38.20;24.93;;;15.40;99.90;;;;;;5106418;28;20191;-38
2021/09/04 05:18:09;;;;;;;34.70;22.83;;;15.30;99.90;;;;;;5087590;28;20223;-37
2021/09/04 05:20:36;;;;;;;33.77;22.27;;;15.20;99.90;;;;;;5109542;27;20195;-37
2021/09/04 05:23:01;;;;;;;34.47;23.60;;;15.20;99.90;;;;;;5121269;27;20609;-37
2021/09/04 05:25:27;;;;;;;37.60;22.97;;;15.20;99.90;;;;;;5126846;27;20491;-37
2021/09/04 05:27:53;;;;;;;32.23;22.53;;;15.20;99.90;;;;;;5127275;27;20256;-37
2021/09/04 05:30:18;;;;;;;37.90;24.43;;;15.10;99.90;;;;;;5127206;27;20656;-37
2021/09/04 05:32:44;;;;;;;41.63;24.30;;;15.10;99.90;;;;;;5126661;27;20759;-38
2021/09/04 05:35:10;;;;;;;38.03;24.60;;;15.10;99.90;;;;;;5121724;27;20199;-37
2021/09/04 05:37:36;;;;;;;35.40;24.30;;;15.00;99.90;;;;;;5124186;27;20207;-37
2021/09/04 05:40:02;;;;;;;39.60;25.00;;;15.10;99.90;;;;;;5126489;27;20420;-36
2021/09/04 05:42:28;;;;;;;40.50;25.77;;;15.10;99.90;;;;;;5126378;27;20586;-37
2021/09/04 05:44:53;;;;;;;38.27;25.50;;;15.00;99.90;;;;;;5126837;27;20559;-37
2021/09/04 05:47:19;;;;;;;38.80;26.70;;;15.00;99.90;;;;;;5126630;27;20191;-37
2021/09/04 05:49:44;;;;;;;42.20;25.97;;;15.00;99.90;;;;;;5126221;27;20653;-37
2021/09/04 05:52:10;;;;;;;44.40;27.33;;;15.00;99.90;;;;;;5116244;27;20243;-38
2021/09/04 05:54:36;;;;;;;39.87;24.20;;;15.00;99.90;;;;;;5105555;27;20611;-37
2021/09/04 05:57:02;;;;;;;35.50;24.07;;;15.00;99.90;;;;;;5125870;27;20187;-37
2021/09/04 05:59:27;;;;;;;40.77;26.07;;;15.00;99.90;;;;;;5126682;27;20195;-36
2021/09/04 06:01:53;;;;;;;37.90;24.50;;;15.10;99.90;;;;;;5126480;27;20677;-37
2021/09/04 06:04:18;;;;;;;38.93;25.50;;;15.10;99.90;;;;;;5126442;27;20211;-37
2021/09/04 06:06:44;;;;;;;35.03;21.93;;;15.10;99.90;;;;;;5115624;27;20687;-37
2021/09/04 06:09:10;;;;;;;33.30;21.60;;;15.10;99.90;;;;;;5119472;27;20564;-37
2021/09/04 06:11:35;;;;;;;30.40;21.43;;;15.10;99.90;;;;;;5126023;28;20187;-38
2021/09/04 06:14:02;;;;;;;30.83;20.30;;;15.10;99.90;;;;;;5106109;28;20198;-37
2021/09/04 06:16:27;;;;;;;31.60;20.60;;;15.10;99.90;;;;;;5124837;28;20521;-37
2021/09/04 06:18:53;;;;;;;31.63;21.80;;;15.10;99.90;;;;;;5126211;28;20420;-37
2021/09/04 06:21:19;;;;;;;28.60;19.37;;;15.10;99.90;;;;;;5116752;28;20192;-37
2021/09/04 06:23:44;;;;;;;35.77;22.47;;;15.10;99.90;;;;;;5125718;28;20259;-37
2021/09/04 06:26:10;;;;;;;28.73;20.57;;;15.00;99.90;;;;;;5126739;28;20673;-37
2021/09/04 06:28:36;;;;;;;42.30;22.10;;;15.00;99.90;;;;;;5126569;28;20266;-37
2021/09/04 06:31:02;;;;;;;36.93;21.27;;;14.90;99.90;;;;;;5126191;28;20507;-37
2021/09/04 06:33:27;;;;;;;29.90;20.03;;;14.90;99.90;;;;;;5126167;28;20187;-37
2021/09/04 06:35:53;;;;;;;28.23;20.13;;;14.90;99.90;;;;;;5118837;28;20232;-37
2021/09/04 06:38:19;;;;;;;36.03;20.37;;;15.00;99.90;;;;;;5124470;28;20269;-37
2021/09/04 06:40:44;;;;;;;28.27;19.67;;;14.90;99.90;;;;;;5125955;28;20566;-37
2021/09/04 06:43:10;;;;;;;29.50;19.13;;;14.90;99.90;;;;;;5126051;28;20190;-37
2021/09/04 06:45:36;;;;;;;25.40;18.30;;;14.90;99.90;;;;;;5125641;28;20214;-37
2021/09/04 06:48:02;;;;;;;27.80;19.13;;;14.90;99.90;;;;;;5126747;28;20183;-38
2021/09/04 06:50:27;;;;;;;24.27;16.90;;;14.90;99.90;;;;;;5122832;28;20850;-37
2021/09/04 06:52:53;;;;;;;25.10;18.67;;;14.90;99.90;;;;;;5120576;28;20412;-37
2021/09/04 06:55:19;;;;;;;27.70;18.30;;;14.90;99.90;;;;;;5126451;28;20677;-37
2021/09/04 06:57:45;;;;;;;26.60;18.07;;;15.00;99.90;;;;;;5125604;28;20267;-37
2021/09/04 07:00:11;;;;;;;27.40;18.20;;;14.90;99.90;;;;;;5125990;28;20907;-37
2021/09/04 07:02:37;;;;;;;25.77;18.20;;;14.90;99.90;;;;;;5125903;28;20291;-37
2021/09/04 07:05:03;;;;;;;25.10;17.70;;;14.80;99.90;;;;;;5125633;28;20491;-37
2021/09/04 07:07:29;;;;;;;26.97;19.83;;;14.90;99.90;;;;;;5112925;28;20271;-37
2021/09/04 07:09:55;;;;;;;32.50;20.60;;;14.80;99.90;;;;;;5127683;27;20506;-37
2021/09/04 07:12:21;;;;;;;31.90;19.97;;;14.80;99.90;;;;;;5129545;27;20183;-37
2021/09/04 07:14:46;;;;;;;26.20;18.20;;;14.80;99.90;;;;;;5124912;27;20191;-37
2021/09/04 07:17:12;;;;;;;28.17;17.50;;;14.90;99.90;;;;;;5127723;27;20922;-37
2021/09/04 07:19:39;;;;;;;26.10;17.43;;;14.80;99.90;;;;;;5129431;27;20199;-37
2021/09/04 07:22:04;;;;;;;27.43;16.90;;;14.90;99.90;;;;;;5115572;27;20580;-37
2021/09/04 07:24:30;;;;;;;26.40;17.27;;;14.90;99.90;;;;;;5127909;27;20452;-37
2021/09/04 07:26:56;;;;;;;24.30;16.33;;;14.90;99.90;;;;;;5128439;27;20423;-37
2021/09/04 07:29:21;;;;;;;29.33;17.83;;;14.90;99.90;;;;;;5129456;27;20194;-37
2021/09/04 07:31:47;;;;;;;25.23;18.17;;;15.00;99.90;;;;;;5129093;27;20187;-37
2021/09/04 07:34:13;;;;;;;26.07;16.67;;;15.00;99.90;;;;;;5129394;27;20209;-38
2021/09/04 07:36:38;;;;;;;25.60;17.03;;;15.00;99.90;;;;;;5123798;27;20620;-37
2021/09/04 07:39:04;;;;;;;29.10;19.60;;;15.00;99.90;;;;;;5124016;27;20184;-37
2021/09/04 07:41:30;;;;;;;26.03;16.50;;;15.00;99.90;;;;;;5127278;27;20263;-37
2021/09/04 07:43:56;;;;;;;28.63;19.07;;;15.00;99.90;;;;;;5128904;27;20210;-37
2021/09/04 07:46:23;;;;;;;28.00;17.67;;;15.00;99.90;;;;;;5129069;27;20433;-37
2021/09/04 07:48:48;;;;;;;23.80;15.90;;;15.00;99.90;;;;;;5129189;27;20657;-37
2021/09/04 07:51:14;;;;;;;25.40;17.27;;;15.00;99.90;;;;;;5124305;27;20483;-37
2021/09/04 07:53:40;;;;;;;30.97;16.60;;;15.00;99.90;;;;;;5121501;27;20187;-37
2021/09/04 07:56:05;;;;;;;28.60;17.70;;;15.00;99.90;;;;;;5128436;27;20428;-36
2021/09/04 07:58:31;;;;;;;30.83;17.23;;;15.00;99.90;;;;;;5129241;27;20331;-37
2021/09/04 08:00:56;;;;;;;24.90;16.53;;;15.00;99.90;;;;;;5128561;27;20210;-37
2021/09/04 08:03:22;;;;;;;26.57;17.10;;;15.00;99.90;;;;;;5128711;27;20211;-37
2021/09/04 08:05:48;;;;;;;26.87;16.70;;;15.00;99.90;;;;;;5109737;27;20222;-37
2021/09/04 08:08:13;;;;;;;27.30;17.90;;;15.00;99.90;;;;;;5118542;27;20665;-37
2021/09/04 08:10:43;;;;;;;24.33;16.40;;;15.10;99.90;;;;;;5128375;27;20601;-37
2021/09/04 08:13:09;;;;;;;24.23;16.73;;;15.10;99.90;;;;;;5128173;27;20525;-37
2021/09/04 08:15:34;;;;;;;26.90;16.90;;;15.10;99.90;;;;;;5118132;27;20428;-37
2021/09/04 08:18:00;;;;;;;26.30;16.93;;;15.00;99.90;;;;;;5127000;27;20421;-37
2021/09/04 08:20:26;;;;;;;26.67;17.33;;;15.10;99.90;;;;;;5128464;27;20214;-37
2021/09/04 08:22:51;;;;;;;29.33;17.70;;;15.10;99.90;;;;;;5117853;27;20196;-37
2021/09/04 08:25:17;;;;;;;24.23;16.07;;;15.10;99.90;;;;;;5122575;27;20750;-37
2021/09/04 08:27:43;;;;;;;25.57;15.47;;;15.10;99.90;;;;;;5128156;27;20436;-37
2021/09/04 08:30:09;;;;;;;31.93;18.13;;;15.10;99.90;;;;;;5128412;27;20398;-37
2021/09/04 08:32:35;;;;;;;26.53;16.00;;;15.00;99.90;;;;;;5127954;27;20199;-37
2021/09/04 08:35:01;;;;;;;27.20;18.23;;;15.00;99.90;;;;;;5128005;27;20907;-37
2021/09/04 08:37:27;;;;;;;29.60;18.63;;;15.10;99.90;;;;;;5116785;27;20233;-37
2021/09/04 08:39:52;;;;;;;26.60;17.07;;;15.10;99.90;;;;;;5109469;27;20637;-37
2021/09/04 08:42:19;;;;;;;29.53;16.90;;;15.10;99.90;;;;;;5127446;27;20199;-37
2021/09/04 08:44:44;;;;;;;26.70;16.17;;;15.10;99.90;;;;;;5128145;27;20223;-37
2021/09/04 08:47:12;;;;;;;26.27;17.80;;;15.10;99.90;;;;;;5127648;27;20934;-38
2021/09/04 08:49:39;;;;;;;28.90;18.23;;;15.10;99.90;;;;;;5127831;27;20198;-37
2021/09/04 08:52:06;;;;;;;24.53;15.67;;;15.10;99.90;;;;;;5119828;27;20461;-37
2021/09/04 08:54:32;;;;;;;31.57;18.47;;;15.10;99.90;;;;;;5127152;27;20539;-37
2021/09/04 08:56:58;;;;;;;28.80;16.63;;;15.10;99.90;;;;;;5127252;27;20428;-37
2021/09/04 08:59:24;;;;;;;23.60;16.43;;;15.10;99.90;;;;;;5128074;27;20420;-37
2021/09/04 09:01:49;;;;;;;23.47;15.80;;;15.20;99.90;;;;;;5127478;27;20581;-37
2021/09/04 09:04:17;;;;;;;20.60;14.60;;;15.20;99.90;;;;;;5109249;27;20218;-37
2021/09/04 09:06:44;;;;;;;25.23;16.30;;;15.20;99.90;;;;;;5122899;27;20211;-37
2021/09/04 09:09:17;;;;;;;22.83;15.43;;;15.20;99.90;;;;;;5114676;27;20458;-37
2021/09/04 09:11:44;;;;;;;25.00;16.70;;;15.30;99.90;;;;;;5122456;27;20432;-38
2021/09/04 09:14:09;;;;;;;23.87;16.00;;;15.30;99.90;;;;;;5118671;27;20434;-37
2021/09/04 09:16:46;;;;;;;28.97;18.50;;;15.30;99.90;;;;;;5120316;27;20930;-37
2021/09/04 09:19:12;;;;;;;25.37;16.37;;;15.30;99.90;;;;;;5127577;27;20561;-37
2021/09/04 09:21:39;;;;;;;27.10;18.20;;;15.30;99.90;;;;;;5124348;27;20520;-37
2021/09/04 09:24:17;;;;;;;29.00;17.90;;;15.30;99.90;;;;;;5118742;27;20246;-37
2021/09/04 09:27:01;;;;;;;27.40;17.90;;;15.40;99.90;;;;;;5125499;27;20437;-37
2021/09/04 09:29:32;;;;;;;27.83;18.00;;;15.40;99.90;;;;;;5127265;27;20412;-37
2021/09/04 09:32:12;;;;;;;25.53;17.43;;;15.40;99.90;;;;;;5126561;27;20903;-37
2021/09/04 09:34:44;;;;;;;24.37;17.23;;;15.40;99.90;;;;;;5127016;27;20973;-37
2021/09/04 09:37:12;;;;;;;26.07;17.50;;;15.50;99.90;;;;;;5121347;27;20530;-38
2021/09/04 09:39:42;;;;;;;26.67;17.93;;;15.50;99.90;;;;;;5107217;27;20515;-37
2021/09/04 09:42:12;;;;;;;26.73;17.20;;;15.60;99.90;;;;;;5125712;27;20431;-37
2021/09/04 09:44:39;;;;;;;26.90;17.80;;;15.60;99.90;;;;;;5126634;27;21061;-37
2021/09/04 09:47:12;;;;;;;29.10;19.27;;;15.60;99.90;;;;;;5126557;27;20425;-37
2021/09/04 09:49:42;;;;;;;28.40;18.47;;;15.60;99.90;;;;;;5126932;27;20504;-37
2021/09/04 09:52:11;;;;;;;27.63;18.77;;;15.70;99.90;;;;;;5122231;27;21382;-37
2021/09/04 09:54:37;;;;;;;27.73;18.80;;;15.70;99.90;;;;;;5121684;27;20409;-38
2021/09/04 09:57:09;;;;;;;25.83;17.80;;;15.70;99.90;;;;;;5121256;27;20851;-37
2021/09/04 09:59:35;;;;;;;23.37;15.47;;;15.70;99.90;;;;;;5126886;27;20488;-37
2021/09/04 10:02:06;;;;;;;24.50;16.53;;;15.60;99.90;;;;;;5126333;27;20911;-37
2021/09/04 10:04:34;;;;;;;25.80;17.60;;;15.60;99.90;;;;;;5126544;27;21343;-38
2021/09/04 10:07:05;;;;;;;26.70;17.83;;;15.70;99.90;;;;;;5124006;27;20462;-37
2021/09/04 10:09:31;;;;;;;26.90;18.50;;;15.70;99.90;;;;;;5117327;27;20413;-37
2021/09/04 10:11:57;;;;;;;27.17;18.43;;;15.70;99.90;;;;;;5125910;28;20770;-37
2021/09/04 10:14:25;;;;;;;34.30;19.40;;;15.70;99.90;;;;;;5115415;28;20768;-37
2021/09/04 10:16:55;;;;;;;26.27;17.90;;;15.80;99.90;;;;;;5117330;28;20471;-37
2021/09/04 10:19:26;;;;;;;25.43;17.57;;;15.80;99.90;;;;;;5126609;28;20477;-37
2021/09/04 10:22:00;;;;;;;25.50;17.27;;;15.80;99.90;;;;;;5126109;28;20507;-37
2021/09/04 10:24:44;;;;;;;25.87;17.37;;;15.80;99.90;;;;;;5118195;28;20464;-37
2021/09/04 10:27:13;;;;;;;24.47;16.03;;;15.80;99.90;;;;;;5121941;28;20412;-37
2021/09/04 10:29:43;;;;;;;27.23;17.90;;;15.90;99.90;;;;;;5126315;28;20428;-37
2021/09/04 10:32:16;;;;;;;24.40;16.63;;;15.90;99.90;;;;;;5126170;28;20498;-38
2021/09/04 10:34:44;;;;;;;22.07;15.20;;;16.00;99.90;;;;;;5126582;28;20420;-37
2021/09/04 10:37:15;;;;;;;24.00;15.80;;;16.00;99.90;;;;;;5123838;28;20773;-37
2021/09/04 10:39:50;;;;;;;24.23;16.33;;;16.00;99.90;;;;;;5123289;28;20416;-38
2021/09/04 10:42:31;;;;;;;26.37;17.43;;;16.00;99.90;;;;;;5121260;28;21048;-37
2021/09/04 10:45:01;;;;;;;25.20;17.67;;;16.00;99.90;;;;;;5116153;27;20881;-37
2021/09/04 10:47:27;;;;;;;27.23;17.57;;;16.10;99.90;;;;;;5129841;27;20476;-37
2021/09/04 10:49:56;;;;;;;26.70;17.40;;;16.10;99.90;;;;;;5130241;27;20432;-37
2021/09/04 10:53:02;;;;;;;19.97;14.30;;;16.10;99.90;;;;;;5126746;27;20408;-37
2021/09/04 10:55:30;;;;;;;22.33;15.90;;;16.10;99.90;;;;;;5063878;28;20468;-37
2021/09/04 10:58:16;;;;;;;24.80;16.97;;;16.10;99.90;;;;;;5059122;28;20573;-37
2021/09/04 11:00:44;;;;;;;23.43;15.53;;;16.10;99.90;;;;;;5098163;27;20795;-37
2021/09/04 11:03:14;;;;;;;26.40;18.30;;;16.10;99.90;;;;;;5129433;27;20429;-37
2021/09/04 11:05:48;;;;;;;24.83;16.50;;;16.20;99.90;;;;;;5129637;27;20456;-37
2021/09/04 11:08:19;;;;;;;25.17;17.70;;;16.20;99.90;;;;;;5120330;27;20453;-37
2021/09/04 11:11:09;;;;;;;30.37;19.33;;;16.20;99.90;;;;;;5122023;27;20473;-37
2021/09/04 11:13:37;;;;;;;32.50;19.63;;;16.20;99.90;;;;;;5111245;27;20418;-37
2021/09/04 11:16:30;;;;;;;28.43;17.90;;;16.30;99.90;;;;;;5112337;27;20421;-37
2021/09/04 11:19:04;;;;;;;26.83;17.77;;;16.20;99.90;;;;;;5116893;27;20464;-37
2021/09/04 11:21:34;;;;;;;33.77;20.37;;;16.20;99.90;;;;;;5129187;27;21075;-37
2021/09/04 11:24:02;;;;;;;34.53;21.30;;;16.30;99.90;;;;;;5117960;27;20473;-37
2021/09/04 11:26:29;;;;;;;30.90;19.50;;;16.20;99.90;;;;;;5127414;27;20580;-37
2021/09/04 11:28:59;;;;;;;31.07;18.77;;;16.30;99.90;;;;;;5129531;27;20934;-37
2021/09/04 11:31:25;;;;;;;29.37;20.17;;;16.30;99.90;;;;;;5129271;27;20416;-37
2021/09/04 11:33:55;;;;;;;31.00;19.43;;;16.30;99.90;;;;;;5111031;27;20419;-37
2021/09/04 11:36:37;;;;;;;29.90;19.90;;;16.30;99.90;;;;;;5128743;27;20468;-37
2021/09/04 11:39:04;;;;;;;26.87;18.17;;;16.30;99.90;;;;;;5121589;27;20521;-37
2021/09/04 11:41:30;;;;;;;29.33;18.57;;;16.30;99.90;;;;;;5128534;27;20416;-37
2021/09/04 11:43:55;;;;;;;30.37;20.40;;;16.30;99.90;;;;;;5129011;27;20567;-37
2021/09/04 11:46:28;;;;;;;32.43;19.17;;;16.40;99.90;;;;;;5128777;27;20630;-37
2021/09/04 11:48:55;;;;;;;32.97;20.47;;;16.40;99.90;;;;;;5128899;27;20254;-37
2021/09/04 11:51:21;;;;;;;30.10;19.73;;;16.40;99.90;;;;;;5129293;27;20452;-38
2021/09/04 11:53:47;;;;;;;28.87;20.00;;;16.50;99.90;;;;;;5121804;27;20711;-37
2021/09/04 11:56:16;;;;;;;25.87;17.97;;;16.50;99.90;;;;;;5128044;27;20195;-37
2021/09/04 11:58:42;;;;;;;27.37;18.40;;;16.60;99.90;;;;;;5124497;27;20687;-37
2021/09/04 12:01:08;;;;;;;30.20;20.67;;;16.60;99.90;;;;;;5128832;27;20452;-37
2021/09/04 12:03:38;;;;;;;31.47;19.00;;;16.60;99.90;;;;;;5128369;27;20342;-37
2021/09/04 12:06:08;;;;;;;30.50;20.17;;;16.60;99.90;;;;;;5109819;27;20475;-37
2021/09/04 12:08:34;;;;;;;34.37;21.63;;;16.60;99.90;;;;;;5123550;27;20994;-37
2021/09/04 12:11:06;;;;;;;29.73;19.27;;;16.70;99.90;;;;;;5124227;27;20693;-37
2021/09/04 12:13:32;;;;;;;28.40;20.67;;;16.60;99.90;;;;;;5120788;27;20452;-37
2021/09/04 12:16:03;;;;;;;31.90;20.53;;;16.70;99.90;;;;;;5107968;28;20465;-37
2021/09/04 12:18:43;;;;;;;29.90;20.20;;;16.70;99.90;;;;;;5125959;27;20435;-37
2021/09/04 12:21:26;;;;;;;30.23;21.23;;;16.70;99.90;;;;;;5128488;27;20424;-37
2021/09/04 12:23:58;;;;;;;36.40;21.40;;;16.70;99.90;;;;;;5119059;27;20435;-37
2021/09/04 12:26:24;;;;;;;34.33;22.97;;;16.70;99.90;;;;;;5125946;27;20416;-37
2021/09/04 12:29:08;;;;;;;35.30;22.10;;;16.70;99.90;;;;;;5128455;27;20424;-37